Time;durP1;ratioP1;P1;durP2;ratioP2;P2;SDS_P1;SDS_P2;PMS_P1;PMS_P2;Temp;Humidity;BMP_temperature;BMP_pressure;BME280_temperature;BME280_humidity;BME280_pressure;Samples;Min_cycle;Max_cycle;Signal;HPM_P1;HPM_P2
2022/06/15 00:01:28;;;;;;;5.15;1.77;;;16.80;66.50;;;;;;5007401;28;20022;-76
2022/06/15 00:03:55;;;;;;;5.57;2.60;;;16.80;66.60;;;;;;4990258;28;20502;-76
2022/06/15 00:06:26;;;;;;;4.72;1.52;;;16.70;66.50;;;;;;5007538;28;20741;-76
2022/06/15 00:08:55;;;;;;;5.68;1.88;;;16.70;66.50;;;;;;5007308;28;20017;-76
2022/06/15 00:11:24;;;;;;;4.30;1.92;;;16.70;66.50;;;;;;5007568;28;20423;-75
2022/06/15 00:13:52;;;;;;;6.40;2.33;;;16.70;66.40;;;;;;4991029;28;20110;-76
2022/06/15 00:16:18;;;;;;;7.20;2.45;;;16.70;66.60;;;;;;5009308;28;20010;-75
2022/06/15 00:18:47;;;;;;;5.65;1.80;;;16.70;66.60;;;;;;5011888;28;20022;-76
2022/06/15 00:21:15;;;;;;;3.83;1.70;;;16.70;66.50;;;;;;5012836;28;20431;-76
2022/06/15 00:23:43;;;;;;;4.32;1.80;;;16.70;66.70;;;;;;5012499;28;20141;-76
2022/06/15 00:26:09;;;;;;;8.82;2.55;;;16.60;66.70;;;;;;5011407;28;20021;-76
2022/06/15 00:28:35;;;;;;;5.90;2.70;;;16.60;66.70;;;;;;5012917;28;20712;-75
2022/06/15 00:31:02;;;;;;;7.13;2.35;;;16.60;66.80;;;;;;5012405;28;20742;-76
2022/06/15 00:33:28;;;;;;;7.05;2.60;;;16.60;67.40;;;;;;5011457;28;20026;-75
2022/06/15 00:35:58;;;;;;;6.20;2.80;;;16.60;66.80;;;;;;5010733;28;20653;-76
2022/06/15 00:38:37;;;;;;;4.70;1.85;;;16.60;67.00;;;;;;5010877;28;20017;-75
2022/06/15 00:41:04;;;;;;;5.03;1.77;;;16.60;66.90;;;;;;5010993;28;20095;-75
2022/06/15 00:43:36;;;;;;;2.95;1.40;;;16.60;66.90;;;;;;5011739;28;20025;-75
2022/06/15 00:46:15;;;;;;;7.80;2.78;;;16.60;66.90;;;;;;5010392;28;20033;-75
2022/06/15 00:48:42;;;;;;;6.85;3.28;;;16.50;66.90;;;;;;5011330;28;20022;-74
2022/06/15 00:51:08;;;;;;;7.90;2.25;;;16.50;67.10;;;;;;5010704;28;20416;-75
2022/06/15 00:53:34;;;;;;;5.57;2.40;;;16.50;67.20;;;;;;5011029;28;20022;-75
2022/06/15 00:56:01;;;;;;;4.38;2.13;;;16.50;67.50;;;;;;5010588;28;20037;-76
2022/06/15 00:58:26;;;;;;;5.38;2.22;;;16.40;67.50;;;;;;4992506;28;20522;-75
2022/06/15 01:00:54;;;;;;;4.65;1.80;;;16.40;67.70;;;;;;5010242;28;20050;-75
2022/06/15 01:03:20;;;;;;;5.40;1.83;;;16.30;67.90;;;;;;5010173;28;20539;-76
2022/06/15 01:06:14;;;;;;;6.47;2.03;;;16.30;67.80;;;;;;5011786;28;20017;-76
2022/06/15 01:09:11;;;;;;;4.68;1.77;;;16.20;68.00;;;;;;5012193;28;20433;-76
2022/06/15 01:11:39;;;;;;;3.95;1.83;;;16.20;67.80;;;;;;5010493;28;20104;-76
2022/06/15 01:14:33;;;;;;;5.50;2.58;;;16.30;67.80;;;;;;5011667;28;20147;-77
2022/06/15 01:17:32;;;;;;;3.85;1.88;;;16.20;68.00;;;;;;5011109;28;20109;-75
2022/06/15 01:20:31;;;;;;;5.65;2.38;;;16.20;67.90;;;;;;4991221;28;20045;-77
2022/06/15 01:23:32;;;;;;;7.25;2.10;;;16.20;68.10;;;;;;5011586;28;20020;-75
2022/06/15 01:26:21;;;;;;;7.00;2.90;;;16.20;68.30;;;;;;5011380;28;20030;-76
2022/06/15 01:29:10;;;;;;;6.97;2.20;;;16.10;68.60;;;;;;5011352;28;20073;-75
2022/06/15 01:31:58;;;;;;;2.97;1.52;;;16.10;68.40;;;;;;5011087;28;20057;-76
2022/06/15 01:34:55;;;;;;;7.03;3.08;;;16.10;68.30;;;;;;5011167;28;20022;-76
2022/06/15 01:37:30;;;;;;;7.07;2.25;;;16.00;68.60;;;;;;5011030;28;20033;-75
2022/06/15 01:39:58;;;;;;;7.63;2.60;;;16.00;68.50;;;;;;5011537;28;20029;-76
2022/06/15 01:42:33;;;;;;;4.82;2.20;;;16.00;68.60;;;;;;5010464;28;20045;-76
2022/06/15 01:45:07;;;;;;;3.22;1.60;;;16.00;68.80;;;;;;5011509;28;20027;-76
2022/06/15 01:47:34;;;;;;;7.60;2.95;;;15.90;68.70;;;;;;5011487;28;20018;-76
2022/06/15 01:50:15;;;;;;;6.30;3.20;;;15.90;68.90;;;;;;4994139;28;20466;-75
2022/06/15 01:52:47;;;;;;;5.90;2.00;;;15.90;69.00;;;;;;5010845;28;20094;-76
2022/06/15 01:55:34;;;;;;;5.05;2.33;;;15.90;68.90;;;;;;5011036;28;20026;-75
2022/06/15 01:58:06;;;;;;;3.60;1.80;;;15.80;69.00;;;;;;5010778;28;20213;-76
2022/06/15 02:00:32;;;;;;;5.07;2.42;;;15.80;68.90;;;;;;4993126;28;20104;-76
2022/06/15 02:03:07;;;;;;;5.88;2.35;;;15.90;69.00;;;;;;5010897;28;20026;-77
2022/06/15 02:05:59;;;;;;;5.75;2.88;;;15.80;69.00;;;;;;5010522;28;20558;-76
2022/06/15 02:08:49;;;;;;;8.13;2.10;;;15.80;69.30;;;;;;5010380;28;20030;-75
2022/06/15 02:11:29;;;;;;;3.92;1.60;;;15.80;69.30;;;;;;5010685;28;20042;-75
2022/06/15 02:14:07;;;;;;;;;;;15.80;69.10;;;;;;5010910;28;20040;-76
2022/06/15 02:16:38;;;;;;;7.30;2.75;;;15.80;69.10;;;;;;5010538;28;19905;-74
2022/06/15 02:19:06;;;;;;;3.75;1.60;;;15.70;69.20;;;;;;4992845;28;20030;-76
2022/06/15 02:21:38;;;;;;;9.02;2.45;;;15.70;69.20;;;;;;5010434;28;20021;-75
2022/06/15 02:24:06;;;;;;;6.85;3.08;;;15.70;69.50;;;;;;5009196;28;20160;-75
2022/06/15 02:26:35;;;;;;;8.57;2.33;;;15.70;69.40;;;;;;5008264;28;20021;-76
2022/06/15 02:29:07;;;;;;;5.97;3.05;;;15.70;70.20;;;;;;5008234;28;20034;-76
2022/06/15 02:31:35;;;;;;;4.30;1.60;;;15.70;69.50;;;;;;4990885;28;20638;-76
2022/06/15 02:34:03;;;;;;;5.28;1.73;;;15.70;69.40;;;;;;5008852;28;20033;-76
2022/06/15 02:36:32;;;;;;;5.75;2.05;;;15.70;69.30;;;;;;5008981;28;20389;-76
2022/06/15 02:38:58;;;;;;;6.50;1.98;;;15.70;69.30;;;;;;5008916;28;20030;-76
2022/06/15 02:41:24;;;;;;;8.43;3.47;;;15.70;69.10;;;;;;4991942;28;20026;-76
2022/06/15 02:43:54;;;;;;;6.55;2.42;;;15.70;69.30;;;;;;5009034;28;20026;-76
2022/06/15 02:46:25;;;;;;;6.47;1.48;;;15.60;69.40;;;;;;5008116;28;20080;-76
2022/06/15 02:48:51;;;;;;;8.73;2.50;;;15.60;69.30;;;;;;5008392;28;20033;-76
2022/06/15 02:51:21;;;;;;;3.72;1.70;;;15.60;69.30;;;;;;5008110;28;20535;-76
2022/06/15 02:53:50;;;;;;;7.40;2.55;;;15.60;69.30;;;;;;5008053;28;20075;-76
2022/06/15 02:56:19;;;;;;;3.45;1.33;;;15.60;69.40;;;;;;5008298;28;20014;-76
2022/06/15 02:58:47;;;;;;;5.68;1.67;;;15.60;69.30;;;;;;5009508;28;20056;-75
2022/06/15 03:01:14;;;;;;;5.03;1.45;;;15.60;69.30;;;;;;5009648;28;20022;-75
2022/06/15 03:03:40;;;;;;;5.18;1.42;;;15.60;69.20;;;;;;5017017;28;20440;-74
2022/06/15 03:06:17;;;;;;;3.20;1.30;;;15.60;69.20;;;;;;5018677;28;20028;-77
2022/06/15 03:08:43;;;;;;;12.40;3.20;;;15.60;69.30;;;;;;5014531;28;20040;-75
2022/06/15 03:11:09;;;;;;;3.13;1.45;;;15.60;69.40;;;;;;5011291;28;20034;-76
2022/06/15 03:13:35;;;;;;;5.43;1.73;;;15.60;69.40;;;;;;5010247;28;20033;-76
2022/06/15 03:16:02;;;;;;;8.27;3.13;;;15.50;69.30;;;;;;5009812;28;20022;-76
2022/06/15 03:18:29;;;;;;;6.25;2.10;;;15.50;69.60;;;;;;5010232;28;20045;-75
2022/06/15 03:21:01;;;;;;;4.03;1.55;;;15.50;69.60;;;;;;4991982;28;20026;-76
2022/06/15 03:23:27;;;;;;;4.78;2.13;;;15.50;69.60;;;;;;5010381;28;20018;-76
2022/06/15 03:25:58;;;;;;;8.30;2.33;;;15.50;69.60;;;;;;4992181;28;20436;-76
2022/06/15 03:28:24;;;;;;;3.88;1.80;;;15.50;69.70;;;;;;5009540;28;20022;-76
2022/06/15 03:30:50;;;;;;;5.65;2.42;;;15.50;69.70;;;;;;5009598;28;20511;-76
2022/06/15 03:33:17;;;;;;;8.23;2.70;;;15.50;70.00;;;;;;5009970;28;20041;-76
2022/06/15 03:35:43;;;;;;;5.85;2.35;;;15.50;69.80;;;;;;5009817;28;20033;-76
2022/06/15 03:38:09;;;;;;;6.40;2.60;;;15.50;70.10;;;;;;5010388;28;20465;-77
2022/06/15 03:40:36;;;;;;;5.85;2.13;;;15.50;70.10;;;;;;4992597;28;20025;-77
2022/06/15 03:43:01;;;;;;;6.18;2.00;;;15.50;70.00;;;;;;5011501;28;20029;-76
2022/06/15 03:45:27;;;;;;;5.82;2.10;;;15.50;70.00;;;;;;5010683;28;20022;-75
2022/06/15 03:47:55;;;;;;;6.15;2.45;;;15.50;70.10;;;;;;5011556;28;20071;-76
2022/06/15 03:50:23;;;;;;;7.55;2.65;;;15.50;70.00;;;;;;5010631;28;20049;-75
2022/06/15 03:52:49;;;;;;;4.40;2.20;;;15.50;70.30;;;;;;4993808;28;20087;-76
2022/06/15 03:55:15;;;;;;;3.38;1.33;;;15.50;70.20;;;;;;5015128;28;20543;-76
2022/06/15 03:57:40;;;;;;;8.52;2.70;;;15.50;69.90;;;;;;5013461;28;20112;-76
2022/06/15 04:00:07;;;;;;;3.22;1.70;;;15.50;70.10;;;;;;5013631;28;20025;-77
2022/06/15 04:02:33;;;;;;;6.03;1.98;;;15.50;69.70;;;;;;5013239;28;20030;-77
2022/06/15 04:04:59;;;;;;;6.10;1.98;;;15.50;69.60;;;;;;5013903;28;20396;-77
2022/06/15 04:10:12;;;;;;;6.32;2.42;;;15.50;70.60;;;;;;5014087;28;20052;-76
2022/06/15 04:12:38;;;;;;;7.65;2.00;;;15.60;70.10;;;;;;5017828;28;20040;-76
2022/06/15 04:15:05;;;;;;;7.40;2.45;;;15.60;70.10;;;;;;5016895;28;20026;-76
2022/06/15 04:17:31;;;;;;;5.47;2.33;;;15.60;70.30;;;;;;5015308;28;20033;-76
2022/06/15 04:22:41;;;;;;;6.25;2.47;;;15.60;70.40;;;;;;5013683;28;20040;-76
2022/06/15 04:25:08;;;;;;;9.50;3.47;;;15.70;70.60;;;;;;5013610;28;20101;-76
2022/06/15 04:27:36;;;;;;;4.05;1.50;;;15.70;70.80;;;;;;4995449;28;20121;-77
2022/06/15 04:30:02;;;;;;;3.60;1.45;;;15.70;70.10;;;;;;4995659;28;20018;-76
2022/06/15 04:32:28;;;;;;;7.15;2.38;;;15.70;69.90;;;;;;5013548;28;20057;-76
2022/06/15 04:34:54;;;;;;;5.72;2.63;;;15.80;70.30;;;;;;5012282;28;20044;-77
2022/06/15 04:37:19;;;;;;;6.30;2.38;;;15.90;70.00;;;;;;5012735;28;20026;-76
2022/06/15 04:39:45;;;;;;;6.57;2.22;;;15.90;69.80;;;;;;5012462;28;20459;-77
2022/06/15 04:42:11;;;;;;;6.50;2.42;;;15.90;69.90;;;;;;5013070;28;20018;-76
2022/06/15 04:44:37;;;;;;;5.13;2.00;;;16.00;69.60;;;;;;5013485;28;20040;-75
2022/06/15 04:47:03;;;;;;;4.38;1.88;;;16.00;69.50;;;;;;5013680;28;20030;-76
2022/06/15 04:49:29;;;;;;;6.93;2.05;;;16.10;69.50;;;;;;5013150;28;20018;-75
2022/06/15 04:51:55;;;;;;;4.93;1.60;;;16.10;69.40;;;;;;5012830;28;20981;-78
2022/06/15 04:54:21;;;;;;;6.53;2.10;;;16.20;69.10;;;;;;5012159;28;20026;-75
2022/06/15 04:56:46;;;;;;;5.05;2.05;;;16.30;69.20;;;;;;4994405;28;20515;-75
2022/06/15 04:59:12;;;;;;;7.03;2.00;;;16.40;68.80;;;;;;5011925;28;20113;-77
2022/06/15 05:01:38;;;;;;;7.60;2.28;;;16.50;68.20;;;;;;4994072;28;20061;-76
2022/06/15 05:04:04;;;;;;;6.28;1.52;;;16.50;67.70;;;;;;5011813;28;20014;-75
2022/06/15 05:06:38;;;;;;;8.75;2.50;;;16.60;67.80;;;;;;5012574;28;20029;-77
2022/06/15 05:09:06;;;;;;;7.85;2.50;;;16.70;67.80;;;;;;5012707;28;20018;-76
2022/06/15 05:11:32;;;;;;;5.13;2.25;;;16.80;68.10;;;;;;5012430;28;20091;-75
2022/06/15 05:13:59;;;;;;;6.70;2.10;;;16.80;67.80;;;;;;5011692;28;20022;-76
2022/06/15 05:16:24;;;;;;;5.60;1.85;;;17.00;68.30;;;;;;5011469;28;20033;-75
2022/06/15 05:18:50;;;;;;;8.20;2.25;;;17.10;67.20;;;;;;5011557;28;20022;-76
2022/06/15 05:21:16;;;;;;;8.10;2.63;;;17.10;67.20;;;;;;5011459;28;20018;-76
2022/06/15 05:23:42;;;;;;;7.88;2.65;;;17.20;67.20;;;;;;5011973;28;20443;-76
2022/06/15 05:26:08;;;;;;;7.78;2.00;;;17.30;66.90;;;;;;5010175;28;20025;-75
2022/06/15 05:28:33;;;;;;;6.18;2.13;;;17.40;66.50;;;;;;5011669;28;20028;-76
2022/06/15 05:31:18;;;;;;;5.40;1.33;;;17.50;66.30;;;;;;5010886;28;20145;-76
2022/06/15 05:33:45;;;;;;;7.53;1.65;;;17.60;66.10;;;;;;5011406;28;20018;-76
2022/06/15 05:36:13;;;;;;;8.15;2.03;;;17.70;65.90;;;;;;5011233;28;20116;-76
2022/06/15 05:38:39;;;;;;;4.18;1.65;;;17.80;65.40;;;;;;5011809;28;20050;-76
2022/06/15 05:41:05;;;;;;;4.70;1.05;;;17.90;65.00;;;;;;5011372;28;20239;-75
2022/06/15 05:43:32;;;;;;;2.70;1.02;;;17.90;64.60;;;;;;5011074;28;20026;-75
2022/06/15 05:46:30;;;;;;;6.05;2.00;;;18.10;64.00;;;;;;5011328;28;20021;-77
2022/06/15 05:48:57;;;;;;;7.38;1.75;;;18.10;64.30;;;;;;4998898;28;20061;-76
2022/06/15 05:51:23;;;;;;;4.72;1.52;;;18.20;64.20;;;;;;5009940;28;20046;-77
2022/06/15 05:53:49;;;;;;;3.58;1.40;;;18.20;63.20;;;;;;5010828;28;20054;-76
2022/06/15 05:56:16;;;;;;;6.18;2.50;;;18.30;63.10;;;;;;5010957;28;20389;-76
2022/06/15 05:58:41;;;;;;;3.15;1.30;;;18.40;63.60;;;;;;5010869;28;20026;-77
2022/06/15 06:01:34;;;;;;;2.28;1.00;;;18.40;62.20;;;;;;5010853;28;20024;-76
2022/06/15 06:04:01;;;;;;;5.68;1.77;;;18.60;62.50;;;;;;5007901;28;20042;-77
2022/06/15 06:06:28;;;;;;;5.63;1.95;;;18.70;63.20;;;;;;5010218;28;20032;-76
2022/06/15 06:08:54;;;;;;;6.43;2.13;;;18.70;63.10;;;;;;5011134;28;20025;-79
2022/06/15 06:11:21;;;;;;;10.20;2.13;;;18.80;62.70;;;;;;5010533;28;20041;-77
2022/06/15 06:13:49;;;;;;;6.60;1.80;;;18.80;62.70;;;;;;4992560;28;20022;-77
2022/06/15 06:16:16;;;;;;;4.55;1.40;;;18.90;62.60;;;;;;4995148;28;20060;-83
2022/06/15 06:18:42;;;;;;;7.78;2.08;;;19.10;61.70;;;;;;5018459;28;20023;-77
2022/06/15 06:21:08;;;;;;;6.35;1.42;;;19.30;61.70;;;;;;5019563;28;20032;-77
2022/06/15 06:23:34;;;;;;;5.00;1.75;;;19.40;61.60;;;;;;5010271;28;20037;-77
2022/06/15 06:26:00;;;;;;;6.90;1.85;;;19.50;61.90;;;;;;5010855;28;20087;-78
2022/06/15 06:28:28;;;;;;;4.43;1.42;;;19.60;60.50;;;;;;5010037;28;20026;-76
2022/06/15 06:30:58;;;;;;;8.13;1.70;;;19.70;60.10;;;;;;5011367;28;20086;-77
2022/06/15 06:33:26;;;;;;;6.70;1.83;;;19.80;59.50;;;;;;5011427;28;20033;-81
2022/06/15 06:35:57;;;;;;;7.85;1.70;;;19.80;59.40;;;;;;5004616;28;20029;-77
2022/06/15 06:38:24;;;;;;;;;;;19.80;59.30;;;;;;5014694;28;20457;-77
2022/06/15 06:40:51;;;;;;;4.93;1.90;;;19.90;59.40;;;;;;5006321;28;19916;-77
2022/06/15 06:43:17;;;;;;;6.65;2.00;;;20.00;58.60;;;;;;5023570;28;20026;-77
2022/06/15 06:45:42;;;;;;;6.45;1.80;;;20.10;58.60;;;;;;5012485;28;20013;-77
2022/06/15 06:48:08;;;;;;;4.68;2.05;;;20.10;58.20;;;;;;4993212;28;20018;-76
2022/06/15 06:50:35;;;;;;;4.85;1.92;;;20.30;58.10;;;;;;5011250;28;20025;-77
2022/06/15 06:53:04;;;;;;;4.75;1.30;;;20.50;58.40;;;;;;5010713;28;20018;-77
2022/06/15 06:55:30;;;;;;;4.22;1.25;;;20.70;58.10;;;;;;5009691;28;20026;-76
2022/06/15 06:57:57;;;;;;;5.82;2.03;;;20.90;57.00;;;;;;5010227;28;20444;-76
2022/06/15 07:00:24;;;;;;;5.00;1.95;;;20.90;56.20;;;;;;4992922;28;20552;-75
2022/06/15 07:02:50;;;;;;;6.22;1.55;;;21.00;56.40;;;;;;5009580;28;20018;-76
2022/06/15 07:05:16;;;;;;;3.55;1.20;;;21.00;56.50;;;;;;5009770;28;20026;-76
2022/06/15 07:07:42;;;;;;;3.47;1.10;;;21.10;56.10;;;;;;4990883;28;20112;-77
2022/06/15 07:10:10;;;;;;;2.83;1.25;;;21.30;56.00;;;;;;5008866;28;20030;-76
2022/06/15 07:12:36;;;;;;;1.70;0.63;;;21.50;55.50;;;;;;5008372;28;20069;-76
2022/06/15 07:15:04;;;;;;;4.70;1.73;;;21.70;55.00;;;;;;5008959;28;20037;-77
2022/06/15 07:17:30;;;;;;;2.95;0.82;;;21.80;55.00;;;;;;5008271;28;20109;-75
2022/06/15 07:19:55;;;;;;;1.70;0.65;;;21.80;54.90;;;;;;5008890;28;20109;-76
2022/06/15 07:22:21;;;;;;;3.15;0.75;;;21.90;54.70;;;;;;5008560;28;20025;-77
2022/06/15 07:24:47;;;;;;;2.03;0.85;;;22.00;54.30;;;;;;5008199;28;20534;-76
2022/06/15 07:27:13;;;;;;;3.95;1.00;;;22.00;54.40;;;;;;5008889;28;20109;-78
2022/06/15 07:29:38;;;;;;;3.55;1.08;;;22.10;54.50;;;;;;5008522;28;20029;-77
2022/06/15 07:32:05;;;;;;;5.22;1.60;;;22.20;53.20;;;;;;5008556;28;20187;-76
2022/06/15 07:34:30;;;;;;;4.50;1.15;;;22.10;52.40;;;;;;5008629;28;20041;-75
2022/06/15 07:36:56;;;;;;;4.97;1.30;;;22.20;52.20;;;;;;5009120;28;20026;-76
2022/06/15 07:39:28;;;;;;;4.82;1.50;;;22.20;53.80;;;;;;5009238;28;20034;-74
2022/06/15 07:41:55;;;;;;;2.47;1.00;;;22.30;52.80;;;;;;4992782;28;20050;-74
2022/06/15 07:44:22;;;;;;;2.97;0.80;;;22.30;53.80;;;;;;4990461;28;20018;-76
2022/06/15 07:46:48;;;;;;;5.95;1.52;;;22.40;54.00;;;;;;5008463;28;20347;-74
2022/06/15 07:52:04;;;;;;;4.13;1.50;;;22.40;51.70;;;;;;5003564;28;20566;-74
2022/06/15 07:54:30;;;;;;;4.45;1.15;;;22.40;52.40;;;;;;5002211;28;20064;-75
2022/06/15 07:56:56;;;;;;;5.03;1.23;;;22.50;51.70;;;;;;5001404;28;20062;-74
2022/06/15 07:59:23;;;;;;;4.93;1.50;;;22.50;53.70;;;;;;5002107;28;20032;-73
2022/06/15 08:01:49;;;;;;;4.70;1.42;;;22.60;53.10;;;;;;5002106;28;20022;-74
2022/06/15 08:04:15;;;;;;;5.13;1.38;;;22.70;51.60;;;;;;5002198;28;20093;-75
2022/06/15 08:06:43;;;;;;;5.47;1.40;;;22.70;51.40;;;;;;5002545;28;20022;-74
2022/06/15 08:09:13;;;;;;;4.00;1.15;;;22.80;52.00;;;;;;4984703;28;20449;-74
2022/06/15 08:12:11;;;;;;;5.07;1.73;;;22.80;51.60;;;;;;5002484;28;20038;-74
2022/06/15 08:14:25;;;;;;;7.10;1.30;;;23.00;51.20;;;;;;5002656;28;20046;-75
2022/06/15 08:16:51;;;;;;;7.82;1.58;;;23.10;50.40;;;;;;5002874;28;20029;-75
2022/06/15 08:19:16;;;;;;;6.20;1.73;;;23.10;50.70;;;;;;5002925;28;20022;-74
2022/06/15 08:21:42;;;;;;;3.72;1.38;;;23.20;50.40;;;;;;5002976;28;20026;-73
2022/06/15 08:24:08;;;;;;;4.75;1.20;;;23.30;51.10;;;;;;5002969;28;20026;-76
2022/06/15 08:26:37;;;;;;;3.67;1.27;;;23.50;51.10;;;;;;5002531;28;20493;-73
2022/06/15 08:29:08;;;;;;;3.40;1.10;;;23.60;51.00;;;;;;5002415;28;20041;-74
2022/06/15 08:31:36;;;;;;;4.55;1.20;;;23.70;51.30;;;;;;5002183;28;20078;-74
2022/06/15 08:34:03;;;;;;;4.35;1.20;;;23.70;50.80;;;;;;4984540;28;20034;-76
2022/06/15 08:36:29;;;;;;;4.07;1.42;;;23.70;50.80;;;;;;5001827;28;20030;-74
2022/06/15 08:38:56;;;;;;;5.35;1.42;;;23.80;50.90;;;;;;5003665;28;20026;-73
2022/06/15 08:41:59;;;;;;;4.78;1.60;;;23.90;50.30;;;;;;5004255;28;20567;-73
2022/06/15 08:44:50;;;;;;;5.80;1.80;;;23.90;52.50;;;;;;4988071;28;20030;-72
2022/06/15 08:47:40;;;;;;;5.57;1.38;;;23.90;52.10;;;;;;5006146;28;20076;-74
2022/06/15 08:50:23;;;;;;;5.63;1.70;;;24.00;51.60;;;;;;5006334;28;20088;-73
2022/06/15 08:53:00;;;;;;;6.00;2.00;;;24.10;49.50;;;;;;5004637;28;20067;-74
2022/06/15 08:56:01;;;;;;;5.63;1.48;;;23.90;48.30;;;;;;5003441;28;20026;-76
2022/06/15 08:58:43;;;;;;;6.38;1.55;;;24.00;51.30;;;;;;5005997;28;20026;-75
2022/06/15 09:01:40;;;;;;;4.63;1.15;;;24.10;52.90;;;;;;5008082;28;20037;-74
2022/06/15 09:04:21;;;;;;;4.80;1.35;;;24.20;52.00;;;;;;5006032;28;20034;-76
2022/06/15 09:07:09;;;;;;;3.28;1.13;;;24.20;51.90;;;;;;5005304;28;20084;-75
2022/06/15 09:09:54;;;;;;;7.72;1.70;;;24.40;52.90;;;;;;5006564;28;20037;-76
2022/06/15 09:12:53;;;;;;;5.50;1.25;;;24.50;50.80;;;;;;4986447;28;20196;-75
2022/06/15 09:15:44;;;;;;;6.05;1.95;;;24.70;52.40;;;;;;5006052;28;20080;-74
2022/06/15 09:18:18;;;;;;;6.80;1.95;;;25.00;50.00;;;;;;4987042;28;20057;-72
2022/06/15 09:21:07;;;;;;;4.18;1.40;;;25.00;49.60;;;;;;5005471;28;20105;-74
2022/06/15 09:23:44;;;;;;;4.78;1.58;;;25.00;49.70;;;;;;5004993;28;20110;-73
2022/06/15 09:26:19;;;;;;;8.52;2.05;;;25.10;49.90;;;;;;5005149;28;20025;-74
2022/06/15 09:29:03;;;;;;;7.88;1.27;;;25.20;50.00;;;;;;5005410;28;20034;-72
2022/06/15 09:31:53;;;;;;;2.90;1.02;;;25.10;52.20;;;;;;5003033;28;20046;-73
2022/06/15 09:34:30;;;;;;;6.25;1.70;;;25.20;50.40;;;;;;5003643;28;20032;-72
2022/06/15 09:36:58;;;;;;;3.47;1.63;;;25.10;49.00;;;;;;5004454;28;20056;-73
2022/06/15 09:39:26;;;;;;;6.38;1.38;;;25.00;52.20;;;;;;5002887;28;20044;-73
2022/06/15 09:42:07;;;;;;;7.65;2.00;;;25.00;49.50;;;;;;5004506;28;20022;-74
2022/06/15 09:44:43;;;;;;;4.47;1.63;;;25.10;48.20;;;;;;5013298;28;20072;-72
2022/06/15 09:47:49;;;;;;;8.10;1.70;;;25.20;51.50;;;;;;5004170;28;20032;-73
2022/06/15 09:50:36;;;;;;;4.57;1.50;;;25.30;47.40;;;;;;5004304;28;20372;-73
2022/06/15 09:53:10;;;;;;;6.55;1.98;;;25.50;51.20;;;;;;5003597;28;20076;-74
2022/06/15 09:55:43;;;;;;;5.30;1.88;;;25.60;48.00;;;;;;5003496;28;20057;-73
2022/06/15 09:58:16;;;;;;;5.88;1.17;;;25.70;49.50;;;;;;5004369;28;20077;-74
2022/06/15 10:00:44;;;;;;;5.38;1.40;;;25.70;49.90;;;;;;5002324;28;20022;-71
2022/06/15 10:03:24;;;;;;;6.15;1.67;;;25.80;49.80;;;;;;5002061;28;20030;-72
2022/06/15 10:05:52;;;;;;;4.25;1.27;;;25.90;49.00;;;;;;5003011;28;20460;-71
2022/06/15 10:08:18;;;;;;;3.60;1.40;;;25.90;48.70;;;;;;5003623;28;20045;-72
2022/06/15 10:10:54;;;;;;;3.30;1.33;;;26.00;48.20;;;;;;4984372;28;20052;-74
2022/06/15 10:13:20;;;;;;;3.17;1.02;;;26.10;49.60;;;;;;5003835;28;20108;-71
2022/06/15 10:15:56;;;;;;;2.90;1.20;;;26.30;49.20;;;;;;5003023;28;20109;-71
2022/06/15 10:18:35;;;;;;;4.07;1.52;;;26.50;48.40;;;;;;4985957;28;20036;-72
2022/06/15 10:21:16;;;;;;;4.00;1.00;;;26.60;48.80;;;;;;5002501;28;20554;-72
2022/06/15 10:24:27;;;;;;;5.53;1.45;;;26.70;48.70;;;;;;5003929;28;20106;-70
2022/06/15 10:27:21;;;;;;;4.53;1.20;;;26.70;46.80;;;;;;4985816;28;20030;-80
2022/06/15 10:29:58;;;;;;;6.30;2.17;;;26.80;49.60;;;;;;5014946;28;20022;-78
2022/06/15 10:32:24;;;;;;;5.47;1.52;;;26.90;42.50;;;;;;5006482;28;20584;-76
2022/06/15 10:34:50;;;;;;;5.20;1.27;;;27.00;42.70;;;;;;5004003;28;20121;-77
2022/06/15 10:37:26;;;;;;;6.70;1.85;;;27.30;49.20;;;;;;4987188;28;20113;-76
2022/06/15 10:39:57;;;;;;;2.65;0.95;;;27.60;46.50;;;;;;4987293;28;20022;-80
2022/06/15 10:42:24;;;;;;;5.15;1.63;;;27.70;50.00;;;;;;5004911;28;20369;-76
2022/06/15 10:45:02;;;;;;;6.15;1.73;;;27.80;45.80;;;;;;5003154;28;20018;-75
2022/06/15 10:47:57;;;;;;;5.97;1.65;;;27.80;45.40;;;;;;5002937;28;20068;-78
2022/06/15 10:50:53;;;;;;;3.72;1.40;;;27.90;41.00;;;;;;4998486;28;20053;-77
2022/06/15 10:53:49;;;;;;;6.10;1.50;;;27.80;44.40;;;;;;5004074;28;20042;-73
2022/06/15 11:02:40;;;;;;;5.88;1.42;;;27.70;45.20;;;;;;5002517;28;20057;-76
2022/06/15 11:05:09;;;;;;;4.25;1.75;;;27.80;50.90;;;;;;5003942;28;20018;-78
2022/06/15 11:07:40;;;;;;;5.10;1.42;;;27.90;50.60;;;;;;4985491;28;20041;-78
2022/06/15 11:10:21;;;;;;;4.13;1.38;;;28.10;50.70;;;;;;5003057;28;20022;-75
2022/06/15 11:12:54;;;;;;;5.00;1.90;;;28.20;41.50;;;;;;5001827;28;20042;-73
2022/06/15 11:18:01;;;;;;;5.80;1.95;;;27.90;38.00;;;;;;5008339;28;20030;-76
2022/06/15 11:18:25;;;;;;;4.90;1.58;;;27.90;41.80;;;;;;5002058;28;20029;-75
2022/06/15 11:21:00;;;;;;;7.80;1.67;;;28.00;43.00;;;;;;5001634;28;20030;-77
2022/06/15 11:23:59;;;;;;;4.05;1.63;;;27.90;50.20;;;;;;5003759;28;20041;-78
2022/06/15 11:29:45;;;;;;;5.78;1.30;;;28.10;40.70;;;;;;5004628;28;20045;-78
2022/06/15 11:32:51;;;;;;;5.75;2.13;;;28.40;47.90;;;;;;5003810;28;20141;-79
2022/06/15 11:35:21;;;;;;;8.57;1.63;;;28.60;46.20;;;;;;5007905;28;20124;-80
2022/06/15 11:37:55;;;;;;;7.05;2.10;;;28.50;43.90;;;;;;5004460;28;20033;-75
2022/06/15 11:40:49;;;;;;;3.67;1.30;;;28.60;43.70;;;;;;4986079;28;20026;-76
2022/06/15 11:43:31;;;;;;;4.55;1.13;;;28.60;48.40;;;;;;4984532;28;20030;-76
2022/06/15 11:46:15;;;;;;;8.27;1.73;;;28.70;47.30;;;;;;5001387;28;20026;-77
2022/06/15 11:49:09;;;;;;;6.90;2.15;;;28.90;40.50;;;;;;4983910;28;20034;-75
2022/06/15 11:51:46;;;;;;;4.07;1.63;;;29.00;39.40;;;;;;5001716;28;20030;-75
2022/06/15 11:54:22;;;;;;;5.25;1.60;;;28.90;49.10;;;;;;4982431;28;20030;-75
2022/06/15 11:57:25;;;;;;;3.72;1.10;;;28.90;40.50;;;;;;4983589;28;20752;-75
2022/06/15 12:00:09;;;;;;;4.50;1.23;;;28.90;47.10;;;;;;4988333;28;20046;-75
2022/06/15 12:03:12;;;;;;;5.50;1.42;;;29.00;48.90;;;;;;5001683;28;20041;-75
2022/06/15 12:05:56;;;;;;;5.55;1.10;;;29.10;48.80;;;;;;5002323;28;20034;-76
2022/06/15 12:08:41;;;;;;;6.97;1.50;;;29.20;43.70;;;;;;5002365;28;20026;-76
2022/06/15 12:14:35;;;;;;;6.45;2.05;;;29.30;45.80;;;;;;5005172;28;20040;-76
2022/06/15 12:17:07;;;;;;;4.80;1.48;;;29.30;38.50;;;;;;4993553;28;20038;-76
2022/06/15 12:19:56;;;;;;;4.15;1.45;;;29.10;46.50;;;;;;5006401;28;20018;-77
2022/06/15 12:22:37;;;;;;;9.60;1.42;;;29.10;43.80;;;;;;5006216;28;20033;-77
2022/06/15 12:25:22;;;;;;;6.47;1.75;;;29.30;46.80;;;;;;5006134;28;20030;-76
2022/06/15 12:28:11;;;;;;;4.32;1.30;;;29.40;42.50;;;;;;4986790;28;20481;-78
2022/06/15 12:30:45;;;;;;;5.72;1.23;;;29.50;49.00;;;;;;5006007;28;20033;-78
2022/06/15 12:33:16;;;;;;;5.60;1.40;;;29.50;46.00;;;;;;4965189;28;20050;-78
2022/06/15 12:36:17;;;;;;;6.60;1.50;;;29.50;42.30;;;;;;4964810;28;20034;-78
2022/06/15 12:38:56;;;;;;;4.72;1.42;;;29.60;36.50;;;;;;4911183;29;20042;-78
2022/06/15 12:44:26;;;;;;;6.72;1.52;;;29.90;44.00;;;;;;4968551;28;20477;-77
2022/06/15 12:46:52;;;;;;;4.38;1.38;;;30.00;41.20;;;;;;4968207;28;20031;-77
2022/06/15 12:49:43;;;;;;;3.65;1.17;;;29.90;44.80;;;;;;4994003;28;20030;-80
2022/06/15 12:52:16;;;;;;;4.63;1.00;;;29.70;46.60;;;;;;4969039;28;20177;-81
2022/06/15 12:54:54;;;;;;;4.18;1.50;;;29.50;49.40;;;;;;4967065;28;20113;-79
2022/06/15 12:57:34;;;;;;;5.47;0.95;;;29.70;42.30;;;;;;4967852;28;20034;-80
2022/06/15 13:00:23;;;;;;;2.80;0.95;;;30.00;42.30;;;;;;4967923;28;20102;-78
2022/06/15 13:03:07;;;;;;;5.60;1.45;;;30.20;43.00;;;;;;4966646;28;20031;-79
2022/06/15 13:05:35;;;;;;;3.70;1.00;;;30.20;41.30;;;;;;4966531;28;20034;-78
2022/06/15 13:08:22;;;;;;;4.35;1.42;;;30.10;40.90;;;;;;4968765;28;20030;-79
2022/06/15 13:10:53;;;;;;;3.92;0.98;;;30.10;37.10;;;;;;4968644;28;20042;-79
2022/06/15 13:13:27;;;;;;;2.58;1.15;;;30.20;45.80;;;;;;4966180;28;20023;-80
2022/06/15 13:15:59;;;;;;;3.35;1.25;;;30.10;38.10;;;;;;4981377;28;20286;-81
2022/06/15 13:18:50;;;;;;;5.38;1.20;;;30.20;41.10;;;;;;4968089;28;20026;-80
2022/06/15 13:21:21;;;;;;;2.80;0.70;;;30.50;44.50;;;;;;4964748;28;20548;-83
2022/06/15 13:23:53;;;;;;;4.32;1.00;;;30.70;47.60;;;;;;4969605;28;20029;-78
2022/06/15 13:26:24;;;;;;;2.75;1.10;;;30.80;36.50;;;;;;4971309;28;20033;-79
2022/06/15 13:29:15;;;;;;;7.97;1.25;;;30.90;41.50;;;;;;4969760;28;20030;-80
2022/06/15 13:31:57;;;;;;;2.63;0.80;;;30.90;42.80;;;;;;4985703;28;20069;-80
2022/06/15 13:34:41;;;;;;;4.50;0.93;;;30.90;44.30;;;;;;4995379;28;20404;-79
2022/06/15 13:37:15;;;;;;;3.65;1.30;;;31.10;43.90;;;;;;5005422;28;20159;-78
2022/06/15 13:40:00;;;;;;;5.70;1.65;;;30.90;39.50;;;;;;5008436;28;20099;-81
2022/06/15 13:42:57;;;;;;;4.45;1.85;;;30.70;40.70;;;;;;4993381;28;20046;-80
2022/06/15 13:45:26;;;;;;;7.30;1.60;;;30.50;47.40;;;;;;4997859;28;20327;-80